createdAt,value
2023-03-20T00:05:58.794Z,10.06
2023-03-20T00:06:58.828Z,10.01
2023-03-20T00:07:58.895Z,10.19
2023-03-20T00:09:58.943Z,10.19
2023-03-20T00:11:59.025Z,9.89
2023-03-20T00:12:59.076Z,9.91
2023-03-20T00:13:59.102Z,9.96
2023-03-20T00:14:59.158Z,9.76
2023-03-20T00:16:59.230Z,9.89
2023-03-20T00:18:59.325Z,9.77
2023-03-20T00:19:59.328Z,9.91
2023-03-20T00:20:59.363Z,9.90
2023-03-20T00:21:59.395Z,10.02
2023-03-20T00:22:59.440Z,10.07
2023-03-20T00:51:00.578Z,9.26
2023-03-20T00:52:00.629Z,9.40
2023-03-20T00:53:00.680Z,9.27
2023-03-20T00:54:00.694Z,9.23
2023-03-20T00:55:00.736Z,9.33
2023-03-20T00:59:00.914Z,9.20
2023-03-20T04:33:58.649Z,0.61
2023-03-20T04:36:58.624Z,0.61
2023-03-20T04:37:58.597Z,0.62
2023-03-20T04:38:58.603Z,0.64
2023-03-20T04:39:58.571Z,0.62
2023-03-20T04:40:58.550Z,0.64
2023-03-20T04:41:58.546Z,0.64
2023-03-20T04:42:58.544Z,0.62
2023-03-20T04:43:58.530Z,0.65
2023-03-20T04:44:58.530Z,0.63
2023-03-20T04:45:58.537Z,0.62
2023-03-20T04:46:58.506Z,0.62
2023-03-20T04:47:58.470Z,0.63
2023-03-20T04:48:58.466Z,0.63
2023-03-20T04:49:58.470Z,0.64
2023-03-20T04:50:58.449Z,0.66
2023-03-20T04:51:58.452Z,0.65
2023-03-20T04:52:58.437Z,0.65
2023-03-20T04:53:58.439Z,0.67
2023-03-20T04:54:58.420Z,0.68
2023-03-20T04:56:01.381Z,0.65
2023-03-20T04:56:58.406Z,0.65
2023-03-20T04:57:58.402Z,0.65
2023-03-20T04:58:58.389Z,0.65
2023-03-20T04:59:58.396Z,0.67
2023-03-20T05:00:58.383Z,0.66
2023-03-20T05:01:58.355Z,0.68
2023-03-20T05:02:58.344Z,0.70
2023-03-20T05:03:58.370Z,0.69
2023-03-20T05:04:58.329Z,0.67
2023-03-20T05:05:58.370Z,0.70
2023-03-20T05:06:58.339Z,0.69
2023-03-20T05:07:58.316Z,0.70
2023-03-20T05:08:58.303Z,0.70
2023-03-20T05:09:58.312Z,0.69
2023-03-20T05:10:58.310Z,0.68
2023-03-20T05:11:58.301Z,0.68
2023-03-20T05:12:58.293Z,0.68
2023-03-20T05:13:58.294Z,0.67
2023-03-20T05:14:58.284Z,0.68
2023-03-20T05:15:58.276Z,0.70
2023-03-20T05:16:58.331Z,0.72
2023-03-20T05:17:58.272Z,0.72
2023-03-20T05:18:58.266Z,0.70
2023-03-20T05:19:58.266Z,0.70
2023-03-20T05:20:58.278Z,0.71
2023-03-20T05:21:58.268Z,0.69
2023-03-20T05:22:58.254Z,0.68
2023-03-20T05:23:58.241Z,0.70
2023-03-20T05:24:58.230Z,0.71
2023-03-20T05:25:58.245Z,0.72
2023-03-20T05:26:58.244Z,0.69
2023-03-20T05:27:58.228Z,0.71
2023-03-20T05:28:58.224Z,0.72
2023-03-20T05:29:58.211Z,0.72
2023-03-20T05:30:58.257Z,0.74
2023-03-20T05:31:58.207Z,0.75
2023-03-20T05:32:58.268Z,0.74
2023-03-20T05:33:58.200Z,0.75
2023-03-20T05:34:58.202Z,0.79
2023-03-20T05:35:58.224Z,0.80
2023-03-20T05:36:58.207Z,0.76
2023-03-20T05:37:58.223Z,0.80
2023-03-20T05:38:58.189Z,0.81
2023-03-20T05:39:58.192Z,0.81
2023-03-20T05:40:58.176Z,0.81
2023-03-20T05:41:58.180Z,0.81
2023-03-20T05:42:58.162Z,0.81
2023-03-20T05:43:58.169Z,0.81
2023-03-20T05:44:58.162Z,0.81
2023-03-20T05:45:58.307Z,0.82
2023-03-20T05:46:58.136Z,0.83
2023-03-20T05:47:58.139Z,0.82
2023-03-20T05:48:58.126Z,0.88
2023-03-20T05:49:58.123Z,0.87
2023-03-20T05:50:58.095Z,0.93
2023-03-20T05:51:58.117Z,0.91
2023-03-20T05:52:58.099Z,0.94
2023-03-20T05:53:58.099Z,0.90
2023-03-20T05:54:58.102Z,0.89
2023-03-20T05:55:58.085Z,0.88
2023-03-20T05:56:59.271Z,0.86
2023-03-20T05:57:58.083Z,0.88
2023-03-20T05:58:58.065Z,0.85
2023-03-20T05:59:58.073Z,0.82
2023-03-20T06:00:58.058Z,0.81
2023-03-20T06:01:58.048Z,0.84
2023-03-20T06:02:58.067Z,0.80
2023-03-20T06:03:58.118Z,0.82
2023-03-20T06:04:58.056Z,0.84
2023-03-20T06:05:58.017Z,0.81
2023-03-20T06:06:58.009Z,0.81
2023-03-20T06:07:58.014Z,0.83
2023-03-20T06:08:58.008Z,0.81
2023-03-20T06:09:58.026Z,0.77
2023-03-20T06:10:57.994Z,0.79
2023-03-20T06:11:57.990Z,0.80
2023-03-20T06:12:57.985Z,0.75
2023-03-20T06:13:57.976Z,0.90
2023-03-20T06:14:57.966Z,1.22
2023-03-20T06:15:57.999Z,1.59
2023-03-20T06:16:58.002Z,1.91
2023-03-20T06:17:57.949Z,2.11
2023-03-20T06:18:57.961Z,2.20
2023-03-20T06:19:57.957Z,2.34
2023-03-20T06:20:57.966Z,2.44
2023-03-20T06:21:57.947Z,2.60
2023-03-20T06:22:57.943Z,2.61
2023-03-20T06:23:57.943Z,2.65
2023-03-20T06:24:57.927Z,2.74
2023-03-20T06:25:57.926Z,2.83
2023-03-20T06:26:57.927Z,3.14
2023-03-20T06:27:57.914Z,3.34
2023-03-20T06:28:57.910Z,3.38
2023-03-20T06:29:57.907Z,3.37
2023-03-20T06:30:57.918Z,3.82
2023-03-20T06:31:57.914Z,4.21
2023-03-20T06:32:57.977Z,4.72
2023-03-20T06:33:57.882Z,5.16
2023-03-20T06:34:57.910Z,5.83
2023-03-20T06:35:57.918Z,6.12
2023-03-20T06:36:57.853Z,6.65
2023-03-20T06:37:57.841Z,7.93
2023-03-20T06:38:57.832Z,8.62
2023-03-20T06:39:57.837Z,9.56
2023-03-20T06:40:57.840Z,4.91
2023-03-20T06:59:57.856Z,7.77
2023-03-20T08:06:56.767Z,34.45
2023-03-20T08:07:56.740Z,37.42
2023-03-20T08:08:56.688Z,36.83
2023-03-20T08:09:56.653Z,37.20
2023-03-20T08:10:56.645Z,38.78
2023-03-20T08:11:56.621Z,42.25
2023-03-20T08:12:56.606Z,42.17
2023-03-20T08:13:56.545Z,41.22
2023-03-20T08:14:56.589Z,43.03
2023-03-20T08:15:56.514Z,47.08
2023-03-20T08:17:13.318Z,49.87
2023-03-20T08:17:57.456Z,49.99
2023-03-20T08:18:56.456Z,50.38
2023-03-20T08:19:56.435Z,51.34
2023-03-20T08:20:56.418Z,53.97
2023-03-20T08:21:56.402Z,56.59
2023-03-20T08:22:56.365Z,50.97
2023-03-20T08:23:56.339Z,48.18
2023-03-20T08:24:56.335Z,50.42
2023-03-20T08:25:56.294Z,46.00
2023-03-20T08:26:56.320Z,34.36
2023-03-20T08:27:56.255Z,27.55
2023-03-20T08:28:56.272Z,21.58
2023-03-20T08:29:56.219Z,16.86
2023-03-20T08:30:56.243Z,14.71
2023-03-20T08:31:56.191Z,11.87
2023-03-20T08:32:56.199Z,10.62
2023-03-20T08:33:56.169Z,8.42
2023-03-20T08:34:56.156Z,7.98
2023-03-20T08:35:56.152Z,6.77
2023-03-20T08:36:56.116Z,5.90
2023-03-20T08:37:56.125Z,4.95
2023-03-20T08:38:56.196Z,2.80
2023-03-20T08:39:56.096Z,1.87
2023-03-20T08:40:56.060Z,2.03
2023-03-20T08:41:56.085Z,2.53
2023-03-20T08:42:56.057Z,2.71
2023-03-20T08:43:56.018Z,3.27
2023-03-20T08:44:56.014Z,4.31
2023-03-20T08:45:56.082Z,5.10
2023-03-20T08:46:56.103Z,6.21
2023-03-20T08:47:55.981Z,7.54
2023-03-20T08:48:56.107Z,9.16
2023-03-20T08:49:55.955Z,9.16
2023-03-20T08:50:55.998Z,8.23
2023-03-20T08:51:55.932Z,6.89
2023-03-20T08:52:55.934Z,5.05
2023-03-20T08:53:55.921Z,4.10
2023-03-20T08:54:55.918Z,3.90
2023-03-20T08:55:55.926Z,3.47
2023-03-20T08:56:55.899Z,3.16
2023-03-20T08:57:55.885Z,2.70
2023-03-20T08:58:56.189Z,2.26
2023-03-20T08:59:55.853Z,2.20
2023-03-20T09:00:55.844Z,2.15
2023-03-20T09:01:55.878Z,2.20
2023-03-20T09:02:55.912Z,2.29
2023-03-20T09:03:55.820Z,2.24
2023-03-20T09:04:55.826Z,2.44
2023-03-20T09:05:55.805Z,2.91
2023-03-20T09:06:55.791Z,3.45
2023-03-20T09:07:55.787Z,4.46
2023-03-20T09:08:55.788Z,5.12
2023-03-20T09:09:55.739Z,5.16
2023-03-20T09:10:55.744Z,5.34
2023-03-20T09:11:55.732Z,5.93
2023-03-20T09:12:55.713Z,6.58
2023-03-20T09:13:55.697Z,8.57
2023-03-20T09:14:55.729Z,9.43
2023-03-20T09:15:55.748Z,10.62
2023-03-20T09:16:55.677Z,10.43
2023-03-20T09:17:55.656Z,11.26
2023-03-20T09:18:55.757Z,11.63
2023-03-20T09:19:55.595Z,11.82
2023-03-20T09:20:55.581Z,12.06
2023-03-20T09:21:55.674Z,12.12
2023-03-20T09:22:55.611Z,12.16
2023-03-20T09:23:55.628Z,12.68
2023-03-20T09:24:55.508Z,13.96
2023-03-20T09:25:55.519Z,16.58
2023-03-20T09:26:55.461Z,21.27
2023-03-20T09:27:55.456Z,12.35
2023-03-20T09:28:55.429Z,13.54
2023-03-20T09:29:55.450Z,15.95
2023-03-20T09:30:55.404Z,20.49
2023-03-20T09:31:55.389Z,28.68
2023-03-20T09:32:55.429Z,33.23
2023-03-20T09:33:55.341Z,35.06
2023-03-20T09:34:55.351Z,36.09
2023-03-20T09:35:55.317Z,39.60
2023-03-20T09:36:55.385Z,41.54
2023-03-20T09:37:55.269Z,40.14
2023-03-20T09:38:55.241Z,39.77
2023-03-20T09:39:55.243Z,39.86
2023-03-20T09:40:55.213Z,40.16
2023-03-20T09:41:57.772Z,40.37
2023-03-20T09:42:55.151Z,39.96
2023-03-20T09:43:55.129Z,40.52
2023-03-20T09:44:55.104Z,41.80
2023-03-20T09:45:55.112Z,41.96
2023-03-20T09:47:02.700Z,42.91
2023-03-20T09:47:56.069Z,43.02
2023-03-20T09:48:55.033Z,41.89
2023-03-20T09:49:55.073Z,29.13
2023-03-20T09:50:55.010Z,28.18
2023-03-20T09:51:54.954Z,20.01
2023-03-20T09:52:54.964Z,13.50
2023-03-20T09:53:54.942Z,8.31
2023-03-20T09:54:55.079Z,5.86
2023-03-20T09:55:54.953Z,4.69
2023-03-20T09:56:54.876Z,3.20
2023-03-20T09:57:54.881Z,2.70
2023-03-20T09:58:54.843Z,2.20
2023-03-20T09:59:54.867Z,1.74
2023-03-20T10:00:54.833Z,1.55
2023-03-20T10:01:54.999Z,1.32
2023-03-20T10:02:54.856Z,1.17
2023-03-20T10:03:54.829Z,1.03
2023-03-20T10:04:54.943Z,0.88
2023-03-20T10:05:54.793Z,0.76
2023-03-20T10:06:54.793Z,0.67
2023-03-20T10:07:54.819Z,0.62
2023-03-20T10:08:54.779Z,0.59
2023-03-20T10:09:54.753Z,0.52
2023-03-20T10:10:54.760Z,0.59
2023-03-20T10:11:54.778Z,0.70
2023-03-20T10:12:54.743Z,1.00
2023-03-20T10:13:54.735Z,1.33
2023-03-20T10:14:54.696Z,1.65
2023-03-20T10:15:54.815Z,1.97
2023-03-20T10:16:54.694Z,2.45
2023-03-20T10:17:54.699Z,2.49
2023-03-20T10:18:54.645Z,2.92
2023-03-20T10:19:54.641Z,3.31
2023-03-20T10:20:54.627Z,3.82
2023-03-20T10:21:54.626Z,4.67
2023-03-20T10:22:54.626Z,5.20
2023-03-20T10:23:54.568Z,5.98
2023-03-20T10:24:54.594Z,6.41
2023-03-20T10:25:54.554Z,7.44
2023-03-20T10:26:54.531Z,8.25
2023-03-20T10:27:54.531Z,9.34
2023-03-20T10:28:55.475Z,10.64
2023-03-20T10:29:54.502Z,11.21
2023-03-20T10:30:54.491Z,12.84
2023-03-20T10:31:54.563Z,14.41
2023-03-20T10:32:54.467Z,14.44
2023-03-20T10:33:54.441Z,14.79
2023-03-20T10:34:54.402Z,15.89
2023-03-20T10:35:54.445Z,17.52
2023-03-20T10:36:54.369Z,20.19
2023-03-20T10:37:54.353Z,21.30
2023-03-20T10:38:54.331Z,21.12
2023-03-20T10:39:54.345Z,22.41
2023-03-20T10:40:54.303Z,25.35
2023-03-20T10:41:54.313Z,28.47
2023-03-20T10:42:54.261Z,29.57
2023-03-20T10:43:54.252Z,29.66
2023-03-20T10:44:54.232Z,29.82
2023-03-20T10:45:54.230Z,24.88
2023-03-20T10:46:54.281Z,12.19
2023-03-20T10:47:54.290Z,8.00
2023-03-20T10:48:54.221Z,4.13
2023-03-20T10:49:54.153Z,3.54
2023-03-20T10:50:54.135Z,3.05
2023-03-20T10:51:54.167Z,2.08
2023-03-20T10:52:54.108Z,1.48
2023-03-20T10:53:54.096Z,1.26
2023-03-20T10:54:54.088Z,1.02
2023-03-20T10:55:54.062Z,0.92
2023-03-20T10:56:54.086Z,0.89
2023-03-20T10:57:54.038Z,0.84
2023-03-20T10:58:54.042Z,0.80
2023-03-20T10:59:54.018Z,0.69
2023-03-20T11:00:54.028Z,0.54
2023-03-20T11:01:54.001Z,0.53
2023-03-20T11:02:54.022Z,0.62
2023-03-20T11:03:54.000Z,0.63
2023-03-20T11:04:53.955Z,0.74
2023-03-20T11:06:08.625Z,0.67
2023-03-20T11:06:54.930Z,0.67
2023-03-20T11:07:53.938Z,0.61
2023-03-20T11:08:53.940Z,0.54
2023-03-20T11:09:53.915Z,0.53
2023-03-20T11:10:53.891Z,0.68
2023-03-20T11:11:53.882Z,0.54
2023-03-20T11:12:53.887Z,0.59
2023-03-20T11:13:53.849Z,0.49
2023-03-20T11:14:53.816Z,0.58
2023-03-20T11:15:53.785Z,0.55
2023-03-20T11:16:53.892Z,0.56
2023-03-20T11:17:53.758Z,0.50
2023-03-20T11:18:53.766Z,0.45
2023-03-20T11:19:53.743Z,0.34
2023-03-20T11:21:01.421Z,0.34
2023-03-20T11:21:53.802Z,0.34
2023-03-20T11:22:53.779Z,0.34
2023-03-20T11:23:53.704Z,0.34
2023-03-20T11:24:53.694Z,0.34
2023-03-20T11:25:53.685Z,0.34
2023-03-20T11:26:53.670Z,0.34
2023-03-20T11:32:57.325Z,0.50
2023-03-20T12:56:52.832Z,20.70
2023-03-20T12:57:52.776Z,19.89
2023-03-20T12:58:52.688Z,19.91
2023-03-20T12:59:52.617Z,20.02
2023-03-20T13:00:52.586Z,20.00
2023-03-20T13:01:52.527Z,20.37
2023-03-20T13:02:52.507Z,21.07
2023-03-20T13:03:52.390Z,21.83
2023-03-20T13:04:52.281Z,21.12
2023-03-20T13:05:52.227Z,21.49
2023-03-20T13:06:52.168Z,21.41
2023-03-20T13:07:52.090Z,18.79
2023-03-20T13:08:52.050Z,20.05
2023-03-20T13:09:51.961Z,21.95
2023-03-20T13:10:51.915Z,21.45
2023-03-20T13:11:51.825Z,21.46
2023-03-20T13:12:51.761Z,20.43
2023-03-20T13:13:51.678Z,19.82
2023-03-20T13:14:51.598Z,19.11
2023-03-20T13:15:51.577Z,19.35
2023-03-20T13:16:51.495Z,19.36
2023-03-20T13:17:51.431Z,19.37
2023-03-20T13:18:51.368Z,19.15
2023-03-20T13:19:51.307Z,17.98
2023-03-20T13:20:51.245Z,16.97
2023-03-20T13:21:51.198Z,17.03
2023-03-20T13:22:51.132Z,17.94
2023-03-20T13:23:51.079Z,18.42
2023-03-20T13:24:51.048Z,18.87
2023-03-20T13:25:50.966Z,19.57
2023-03-20T13:26:50.926Z,19.12
2023-03-20T13:27:50.851Z,20.11
2023-03-20T13:28:50.782Z,19.88
2023-03-20T13:29:50.741Z,20.61
2023-03-20T13:30:50.709Z,21.18
2023-03-20T13:31:50.668Z,21.02
2023-03-20T13:32:50.593Z,22.20
2023-03-20T13:33:50.532Z,22.51
2023-03-20T13:34:52.900Z,22.63
2023-03-20T13:35:50.379Z,22.66
2023-03-20T13:36:50.320Z,22.75
2023-03-20T13:37:50.252Z,19.91
2023-03-20T13:38:50.231Z,20.35
2023-03-20T13:39:50.136Z,19.75
2023-03-20T13:40:50.058Z,18.89
2023-03-20T13:41:50.016Z,17.04
2023-03-20T13:42:49.930Z,16.50
2023-03-20T13:43:49.874Z,17.30
2023-03-20T13:44:49.804Z,16.66
2023-03-20T13:45:49.743Z,17.13
2023-03-20T13:46:49.764Z,17.26
2023-03-20T13:47:49.639Z,15.19
2023-03-20T13:48:49.532Z,14.92
2023-03-20T13:49:49.481Z,15.38
2023-03-20T13:50:49.400Z,16.37
2023-03-20T13:51:49.360Z,16.76
2023-03-20T13:52:49.297Z,15.77
2023-03-20T13:53:49.209Z,16.71
2023-03-20T13:54:49.158Z,19.47
2023-03-20T13:55:49.104Z,19.11
2023-03-20T13:56:49.083Z,19.87
2023-03-20T13:57:48.964Z,21.30
2023-03-20T13:58:48.887Z,19.57
2023-03-20T13:59:48.827Z,19.27
2023-03-20T14:00:48.862Z,18.56
2023-03-20T14:01:48.702Z,19.55
2023-03-20T14:02:48.620Z,19.57
2023-03-20T14:03:48.596Z,18.73
2023-03-20T14:04:48.501Z,19.93
2023-03-20T14:05:48.434Z,20.50
2023-03-20T14:06:48.377Z,20.44
2023-03-20T14:07:48.320Z,21.72
2023-03-20T14:08:48.232Z,18.79
2023-03-20T14:09:48.189Z,17.59
2023-03-20T14:10:48.114Z,17.37
2023-03-20T14:11:48.065Z,17.53
2023-03-20T14:12:47.986Z,16.98
2023-03-20T14:13:47.925Z,17.03
2023-03-20T14:14:47.876Z,17.47
2023-03-20T14:15:47.811Z,16.26
2023-03-20T14:16:47.776Z,14.61
2023-03-20T14:17:47.663Z,15.58
2023-03-20T14:18:47.632Z,15.44
2023-03-20T14:19:47.605Z,16.48
2023-03-20T14:20:47.507Z,15.73
2023-03-20T14:21:47.458Z,14.21
2023-03-20T14:22:47.390Z,14.67
2023-03-20T14:23:47.321Z,13.92
2023-03-20T14:24:47.267Z,13.69
2023-03-20T16:21:42.688Z,14.08
2023-03-20T16:22:42.687Z,14.22
2023-03-20T16:23:42.706Z,13.98
2023-03-20T16:24:42.701Z,14.01
2023-03-20T16:25:42.702Z,14.00
2023-03-20T16:26:42.707Z,14.31
2023-03-20T16:27:42.750Z,14.30
2023-03-20T16:28:42.699Z,14.10
2023-03-20T16:29:42.746Z,14.28
2023-03-20T16:30:42.703Z,14.39
2023-03-20T16:31:42.756Z,14.18
2023-03-20T16:32:42.749Z,14.33
2023-03-20T16:33:42.721Z,14.34
2023-03-20T16:34:42.724Z,14.17
2023-03-20T16:35:42.769Z,14.36
2023-03-20T16:36:42.741Z,14.35
2023-03-20T16:37:42.740Z,14.35
2023-03-20T16:38:42.740Z,14.65
2023-03-20T16:39:42.756Z,14.14
2023-03-20T16:40:42.736Z,14.20
2023-03-20T16:41:42.763Z,14.15
2023-03-20T16:42:42.754Z,13.94
2023-03-20T16:43:42.751Z,14.16
2023-03-20T16:44:42.758Z,14.12
2023-03-20T16:45:44.217Z,14.15
2023-03-20T16:46:42.717Z,13.86
2023-03-20T16:47:42.656Z,14.00
2023-03-20T16:48:42.599Z,14.00
2023-03-20T16:49:42.549Z,14.17
2023-03-20T16:50:42.498Z,13.87
2023-03-20T16:51:42.461Z,13.80
2023-03-20T16:52:42.407Z,13.94
2023-03-20T16:53:42.360Z,13.94
2023-03-20T16:54:42.374Z,14.04
2023-03-20T16:55:42.367Z,13.94
2023-03-20T16:56:42.387Z,13.97
2023-03-20T16:57:42.376Z,13.94
2023-03-20T16:58:42.400Z,13.88
2023-03-20T16:59:42.404Z,13.71
2023-03-20T17:00:42.446Z,13.57
2023-03-20T17:01:42.411Z,13.62
2023-03-20T17:02:42.419Z,13.80
2023-03-20T17:03:42.430Z,13.64
2023-03-20T17:04:42.525Z,13.53
2023-03-20T17:05:42.444Z,13.48
2023-03-20T17:06:42.450Z,13.42
2023-03-20T17:07:42.464Z,13.26
2023-03-20T17:08:42.468Z,13.33
2023-03-20T17:09:42.465Z,13.30
2023-03-20T17:10:42.459Z,13.31
2023-03-20T17:11:42.460Z,13.35
2023-03-20T17:12:42.463Z,13.17
2023-03-20T17:13:42.462Z,13.16
2023-03-20T17:14:42.473Z,12.64
2023-03-20T17:15:42.475Z,13.20
2023-03-20T17:16:42.511Z,12.81
2023-03-20T17:17:42.488Z,12.98
2023-03-20T17:18:42.496Z,12.89
2023-03-20T17:19:42.492Z,12.69
2023-03-20T17:20:42.501Z,12.79
2023-03-20T17:21:42.545Z,12.77
2023-03-20T17:22:42.511Z,12.66
2023-03-20T17:23:42.501Z,12.40
2023-03-20T17:24:42.499Z,12.63
2023-03-20T17:25:42.500Z,12.62
2023-03-20T17:26:42.502Z,12.49
2023-03-20T17:27:42.508Z,12.52
2023-03-20T17:28:42.602Z,12.49
2023-03-20T17:29:42.519Z,12.33
2023-03-20T17:30:42.497Z,12.21
2023-03-20T17:31:42.596Z,12.45
2023-03-20T17:32:42.515Z,12.00
2023-03-20T17:33:42.508Z,12.09
2023-03-20T17:34:42.499Z,12.04
2023-03-20T17:35:42.525Z,11.97
2023-03-20T17:36:42.514Z,12.13
2023-03-20T17:37:42.501Z,11.84
2023-03-20T17:38:42.490Z,11.92
2023-03-20T17:39:42.490Z,11.87
2023-03-20T17:40:42.530Z,11.72
2023-03-20T17:41:42.497Z,11.68
2023-03-20T17:42:42.495Z,11.69
2023-03-20T17:43:42.491Z,11.57
2023-03-20T17:44:42.508Z,11.61
2023-03-20T17:45:42.573Z,11.66
2023-03-20T17:46:56.598Z,11.71
2023-03-20T17:47:43.460Z,11.72
2023-03-20T17:48:42.411Z,11.72
2023-03-20T17:49:42.372Z,11.65
2023-03-20T17:50:42.329Z,11.69
2023-03-20T17:51:42.261Z,11.52
2023-03-20T17:52:42.211Z,11.40
2023-03-20T17:53:42.170Z,11.40
2023-03-20T17:54:42.126Z,11.31
2023-03-20T17:55:42.064Z,11.28
2023-03-20T17:56:42.026Z,11.28
2023-03-20T17:57:41.970Z,11.21
2023-03-20T17:58:41.924Z,11.05
2023-03-20T17:59:41.853Z,11.04
2023-03-20T18:00:41.839Z,11.02
2023-03-20T18:01:41.788Z,10.89
2023-03-20T18:02:41.701Z,10.91
2023-03-20T18:03:41.672Z,10.86
2023-03-20T18:04:41.615Z,10.69
2023-03-20T18:05:41.548Z,10.90
2023-03-20T18:06:41.498Z,10.90
2023-03-20T18:07:41.502Z,10.84
2023-03-20T18:08:41.388Z,10.70
2023-03-20T18:09:41.367Z,10.51
2023-03-20T18:10:41.310Z,10.62
2023-03-20T18:11:41.246Z,10.63
2023-03-20T18:12:41.201Z,10.45
2023-03-20T18:13:41.150Z,10.48
2023-03-20T18:14:41.106Z,10.32
2023-03-20T18:15:41.082Z,10.34
2023-03-20T18:16:41.004Z,10.16
2023-03-20T18:17:40.950Z,10.25
2023-03-20T18:18:40.890Z,10.23
2023-03-20T18:19:40.855Z,10.12
2023-03-20T18:20:40.801Z,10.03
2023-03-20T18:21:40.745Z,10.26
2023-03-20T18:22:40.681Z,9.91
2023-03-20T18:23:40.640Z,10.12
2023-03-20T18:24:40.824Z,10.04
2023-03-20T18:25:40.563Z,9.91
2023-03-20T18:26:40.489Z,10.00
2023-03-20T18:27:40.443Z,10.00
2023-03-20T18:28:40.400Z,9.84
2023-03-20T18:29:40.343Z,9.81
2023-03-20T18:30:40.546Z,9.78
2023-03-20T18:31:42.745Z,9.78
2023-03-20T18:32:40.243Z,9.78
2023-03-20T18:33:40.145Z,9.79
2023-03-20T18:34:40.101Z,9.81
2023-03-20T18:35:40.092Z,9.64
2023-03-20T18:36:40.012Z,9.61
2023-03-20T18:37:39.938Z,9.64
2023-03-20T18:38:39.913Z,9.63
2023-03-20T18:39:39.820Z,9.60
2023-03-20T18:40:40.235Z,9.55
2023-03-20T18:41:39.723Z,9.40
2023-03-20T18:42:39.676Z,9.35
2023-03-20T18:43:39.602Z,9.46
2023-03-20T18:44:39.539Z,9.28
2023-03-20T18:45:39.482Z,9.32
2023-03-20T18:46:39.457Z,9.13
2023-03-20T18:47:39.404Z,9.44
2023-03-20T18:48:39.333Z,9.18
2023-03-20T18:49:39.272Z,9.17
2023-03-20T18:50:39.680Z,9.27
2023-03-20T18:51:39.169Z,9.01
2023-03-20T18:52:39.107Z,9.06
2023-03-20T18:53:39.045Z,9.04
2023-03-20T18:54:38.999Z,8.98
2023-03-20T18:55:38.932Z,9.02
2023-03-20T18:56:38.885Z,8.99
2023-03-20T18:57:40.507Z,8.65
2023-03-20T18:58:38.783Z,8.66
2023-03-20T18:59:38.722Z,8.72
2023-03-20T19:00:38.895Z,8.75
2023-03-20T19:01:38.672Z,8.88
2023-03-20T19:02:38.573Z,8.67
2023-03-20T19:03:38.535Z,8.79
2023-03-20T19:04:38.458Z,8.70
2023-03-20T19:05:38.429Z,8.79
2023-03-20T19:06:38.348Z,8.77
2023-03-20T19:07:38.309Z,8.54
2023-03-20T19:08:38.243Z,8.66
2023-03-20T19:09:38.189Z,8.30
2023-03-20T19:10:38.347Z,8.26
2023-03-20T19:11:38.072Z,8.45
2023-03-20T19:12:38.028Z,8.57
2023-03-20T19:13:37.968Z,8.36
2023-03-20T19:14:37.912Z,8.31
2023-03-20T19:15:37.887Z,7.98
2023-03-20T19:16:38.155Z,8.25
2023-03-20T19:17:37.776Z,8.32
2023-03-20T19:18:40.015Z,8.19
2023-03-20T19:19:37.641Z,8.21
2023-03-20T19:20:38.064Z,8.20
2023-03-20T19:21:37.560Z,8.21
2023-03-20T19:22:37.467Z,8.27
2023-03-20T19:23:37.423Z,8.00
2023-03-20T19:24:37.372Z,8.07
2023-03-20T19:25:37.295Z,8.12
2023-03-20T20:36:01.272Z,6.29
2023-03-20T20:39:33.295Z,6.30
2023-03-20T20:44:32.950Z,6.11
2023-03-20T21:01:32.098Z,5.73
2023-03-20T21:07:03.531Z,5.69
2023-03-20T21:08:31.665Z,5.72
2023-03-20T21:09:31.622Z,5.71
2023-03-20T21:10:31.547Z,5.73
2023-03-20T21:11:31.500Z,5.74
2023-03-20T21:12:40.229Z,5.67
2023-03-20T21:14:31.350Z,5.67
2023-03-20T21:15:31.282Z,5.71
2023-03-20T21:16:31.319Z,5.71
2023-03-20T21:17:31.192Z,5.56
2023-03-20T21:18:31.154Z,5.66
2023-03-20T21:19:31.087Z,5.63
2023-03-20T21:20:31.115Z,5.61
2023-03-20T21:21:30.978Z,5.46
2023-03-20T21:22:30.923Z,5.43
2023-03-20T21:23:30.889Z,5.51
2023-03-20T21:24:33.199Z,5.47
2023-03-20T21:25:40.036Z,5.56
2023-03-20T21:27:30.685Z,5.58
2023-03-20T21:28:30.644Z,5.57
2023-03-20T21:29:30.612Z,5.63
2023-03-20T21:30:30.536Z,5.52
2023-03-20T21:31:31.549Z,5.58
2023-03-20T21:32:30.433Z,5.48
2023-03-20T21:33:30.394Z,5.48
2023-03-20T21:34:30.328Z,5.37
2023-03-20T21:35:30.266Z,5.48
2023-03-20T21:36:30.221Z,5.31
2023-03-20T21:39:30.070Z,5.26
2023-03-20T21:40:30.024Z,5.27
2023-03-20T21:41:29.988Z,5.26
2023-03-20T21:42:29.908Z,5.27
2023-03-20T21:43:29.865Z,5.33
2023-03-20T21:47:04.020Z,5.28
2023-03-20T21:49:31.492Z,5.29
2023-03-20T21:51:15.151Z,5.30
2023-03-20T21:57:07.904Z,5.31
2023-03-20T21:58:10.287Z,5.31
2023-03-20T22:00:27.688Z,5.31
2023-03-20T22:01:58.829Z,5.31
2023-03-20T22:02:32.464Z,5.31
2023-03-20T22:04:01.761Z,5.31
2023-03-20T22:06:22.030Z,5.30
2023-03-20T22:08:08.916Z,5.30
2023-03-20T22:12:23.160Z,5.31
2023-03-20T22:13:21.613Z,5.31
2023-03-20T22:16:04.782Z,5.32
2023-03-20T22:17:40.694Z,5.31
2023-03-20T22:21:23.916Z,5.31
2023-03-20T22:24:14.610Z,5.31
2023-03-20T22:27:18.767Z,5.32
2023-03-20T22:30:05.094Z,5.31
2023-03-20T22:31:19.519Z,5.30
2023-03-20T22:33:09.803Z,5.31
2023-03-20T22:34:17.708Z,5.31
2023-03-20T22:35:12.909Z,5.30
2023-03-20T22:38:11.775Z,5.31
2023-03-20T22:39:14.091Z,5.30
2023-03-20T22:40:18.082Z,5.30
2023-03-20T22:41:21.728Z,5.31
2023-03-20T22:42:18.488Z,5.31
2023-03-20T22:44:24.870Z,5.30
2023-03-20T23:23:24.788Z,4.37
2023-03-20T23:24:24.739Z,4.33
2023-03-20T23:25:38.386Z,4.36
2023-03-20T23:27:24.581Z,4.39
2023-03-20T23:28:24.528Z,4.37
2023-03-20T23:29:24.489Z,4.27
2023-03-20T23:30:27.547Z,4.44
2023-03-20T23:32:24.314Z,4.37
2023-03-20T23:33:24.271Z,4.38
2023-03-20T23:34:24.224Z,4.29
2023-03-20T23:35:24.172Z,4.28
2023-03-20T23:36:35.384Z,4.28
2023-03-20T23:38:24.010Z,4.30
2023-03-20T23:39:23.967Z,4.29
2023-03-20T23:40:23.950Z,4.33
2023-03-20T23:41:43.630Z,4.26
2023-03-20T23:42:30.539Z,4.28
2023-03-20T23:43:24.739Z,4.29
2023-03-20T23:44:23.678Z,4.31
2023-03-20T23:45:23.652Z,4.31
2023-03-20T23:46:23.652Z,4.38
2023-03-20T23:47:25.710Z,4.31
2023-03-20T23:48:23.537Z,4.29
2023-03-20T23:49:23.429Z,4.29
2023-03-20T23:50:33.953Z,4.29
2023-03-20T23:51:24.316Z,4.29
2023-03-20T23:52:23.276Z,4.31
2023-03-20T23:53:23.224Z,4.27
2023-03-20T23:54:23.164Z,4.27
2023-03-20T23:55:23.110Z,4.28
2023-03-20T23:56:23.073Z,4.23
2023-03-20T23:57:23.022Z,4.15
2023-03-20T23:58:22.956Z,4.17
2023-03-20T23:59:22.950Z,4.11
